sensor_id;sensor_type;location;lat;lon;timestamp;temperature;humidity
70534;SHT31;58088;51.186;17.130;2023-04-25T00:01:33;11.48;68.87
70534;SHT31;58088;51.186;17.130;2023-04-25T00:04:01;11.47;68.90
70534;SHT31;58088;51.186;17.130;2023-04-25T00:06:28;11.48;68.90
70534;SHT31;58088;51.186;17.130;2023-04-25T00:08:55;11.46;68.81
70534;SHT31;58088;51.186;17.130;2023-04-25T00:11:22;11.44;68.71
70534;SHT31;58088;51.186;17.130;2023-04-25T00:13:49;11.42;68.63
70534;SHT31;58088;51.186;17.130;2023-04-25T00:16:19;11.39;68.58
70534;SHT31;58088;51.186;17.130;2023-04-25T00:18:45;11.36;68.50
70534;SHT31;58088;51.186;17.130;2023-04-25T00:21:17;11.34;68.34
70534;SHT31;58088;51.186;17.130;2023-04-25T00:23:45;11.33;68.30
70534;SHT31;58088;51.186;17.130;2023-04-25T00:26:12;11.32;68.17
70534;SHT31;58088;51.186;17.130;2023-04-25T00:28:39;11.33;68.18
70534;SHT31;58088;51.186;17.130;2023-04-25T00:31:06;11.32;68.09
70534;SHT31;58088;51.186;17.130;2023-04-25T00:33:32;11.32;68.02
70534;SHT31;58088;51.186;17.130;2023-04-25T00:35:58;11.33;67.98
70534;SHT31;58088;51.186;17.130;2023-04-25T00:38:24;11.33;68.00
70534;SHT31;58088;51.186;17.130;2023-04-25T00:40:51;11.31;68.00
70534;SHT31;58088;51.186;17.130;2023-04-25T00:43:18;11.31;68.00
70534;SHT31;58088;51.186;17.130;2023-04-25T00:45:44;11.30;68.00
70534;SHT31;58088;51.186;17.130;2023-04-25T00:48:15;11.30;68.01
70534;SHT31;58088;51.186;17.130;2023-04-25T00:50:45;11.31;68.00
70534;SHT31;58088;51.186;17.130;2023-04-25T00:53:22;11.30;68.05
70534;SHT31;58088;51.186;17.130;2023-04-25T00:55:51;11.27;67.99
70534;SHT31;58088;51.186;17.130;2023-04-25T00:58:19;11.26;68.00
70534;SHT31;58088;51.186;17.130;2023-04-25T01:00:47;11.25;68.05
70534;SHT31;58088;51.186;17.130;2023-04-25T01:03:16;11.26;68.14
70534;SHT31;58088;51.186;17.130;2023-04-25T01:05:45;11.24;68.19
70534;SHT31;58088;51.186;17.130;2023-04-25T01:08:13;11.24;68.11
70534;SHT31;58088;51.186;17.130;2023-04-25T01:10:40;11.22;68.10
70534;SHT31;58088;51.186;17.130;2023-04-25T01:13:07;11.21;68.10
70534;SHT31;58088;51.186;17.130;2023-04-25T01:15:34;11.19;68.15
70534;SHT31;58088;51.186;17.130;2023-04-25T01:18:01;11.17;68.20
70534;SHT31;58088;51.186;17.130;2023-04-25T01:20:30;11.17;68.20
70534;SHT31;58088;51.186;17.130;2023-04-25T01:22:59;11.15;68.15
70534;SHT31;58088;51.186;17.130;2023-04-25T01:25:28;11.11;68.17
70534;SHT31;58088;51.186;17.130;2023-04-25T01:27:56;11.09;68.19
70534;SHT31;58088;51.186;17.130;2023-04-25T01:30:25;11.04;68.10
70534;SHT31;58088;51.186;17.130;2023-04-25T01:32:56;11.03;68.05
70534;SHT31;58088;51.186;17.130;2023-04-25T01:35:23;10.99;68.03
70534;SHT31;58088;51.186;17.130;2023-04-25T01:37:52;10.99;68.12
70534;SHT31;58088;51.186;17.130;2023-04-25T01:40:20;10.97;68.05
70534;SHT31;58088;51.186;17.130;2023-04-25T01:42:48;10.96;68.04
70534;SHT31;58088;51.186;17.130;2023-04-25T01:45:14;10.96;68.17
70534;SHT31;58088;51.186;17.130;2023-04-25T01:47:41;10.93;68.13
70534;SHT31;58088;51.186;17.130;2023-04-25T01:50:09;10.91;68.10
70534;SHT31;58088;51.186;17.130;2023-04-25T01:52:37;10.87;68.10
70534;SHT31;58088;51.186;17.130;2023-04-25T01:55:04;10.83;68.14
70534;SHT31;58088;51.186;17.130;2023-04-25T01:57:33;10.81;68.14
70534;SHT31;58088;51.186;17.130;2023-04-25T02:00:01;10.79;68.16
70534;SHT31;58088;51.186;17.130;2023-04-25T02:02:40;10.76;68.06
70534;SHT31;58088;51.186;17.130;2023-04-25T02:05:26;10.75;68.02
70534;SHT31;58088;51.186;17.130;2023-04-25T02:07:53;10.73;68.08
70534;SHT31;58088;51.186;17.130;2023-04-25T02:10:19;10.70;68.00
70534;SHT31;58088;51.186;17.130;2023-04-25T02:13:02;10.66;67.99
70534;SHT31;58088;51.186;17.130;2023-04-25T02:15:40;10.63;67.99
70534;SHT31;58088;51.186;17.130;2023-04-25T02:18:24;10.59;67.97
70534;SHT31;58088;51.186;17.130;2023-04-25T02:20:51;10.56;67.99
70534;SHT31;58088;51.186;17.130;2023-04-25T02:23:19;10.54;67.99
70534;SHT31;58088;51.186;17.130;2023-04-25T02:25:46;10.51;67.91
70534;SHT31;58088;51.186;17.130;2023-04-25T02:28:13;10.46;67.92
70534;SHT31;58088;51.186;17.130;2023-04-25T02:30:39;10.45;68.00
70534;SHT31;58088;51.186;17.130;2023-04-25T02:33:05;10.41;68.03
70534;SHT31;58088;51.186;17.130;2023-04-25T02:35:31;10.39;68.07
70534;SHT31;58088;51.186;17.130;2023-04-25T02:37:57;10.36;68.09
70534;SHT31;58088;51.186;17.130;2023-04-25T02:40:24;10.36;68.09
70534;SHT31;58088;51.186;17.130;2023-04-25T02:42:50;10.35;68.09
70534;SHT31;58088;51.186;17.130;2023-04-25T02:45:18;10.32;68.15
70534;SHT31;58088;51.186;17.130;2023-04-25T02:47:44;10.29;68.11
70534;SHT31;58088;51.186;17.130;2023-04-25T02:50:10;10.28;68.11
70534;SHT31;58088;51.186;17.130;2023-04-25T02:52:37;10.27;68.11
70534;SHT31;58088;51.186;17.130;2023-04-25T02:55:15;10.23;68.16
70534;SHT31;58088;51.186;17.130;2023-04-25T02:57:41;10.16;68.24
70534;SHT31;58088;51.186;17.130;2023-04-25T03:00:09;10.17;68.28
70534;SHT31;58088;51.186;17.130;2023-04-25T03:02:37;10.16;68.30
70534;SHT31;58088;51.186;17.130;2023-04-25T03:05:03;10.16;68.28
70534;SHT31;58088;51.186;17.130;2023-04-25T03:07:31;10.16;68.38
70534;SHT31;58088;51.186;17.130;2023-04-25T03:09:58;10.12;68.40
70534;SHT31;58088;51.186;17.130;2023-04-25T03:12:24;10.09;68.40
70534;SHT31;58088;51.186;17.130;2023-04-25T03:14:51;10.08;68.39
70534;SHT31;58088;51.186;17.130;2023-04-25T03:17:17;10.08;68.38
70534;SHT31;58088;51.186;17.130;2023-04-25T03:19:44;10.08;68.30
70534;SHT31;58088;51.186;17.130;2023-04-25T03:22:11;10.06;68.34
70534;SHT31;58088;51.186;17.130;2023-04-25T03:24:37;10.05;68.43
70534;SHT31;58088;51.186;17.130;2023-04-25T03:27:04;10.04;68.46
70534;SHT31;58088;51.186;17.130;2023-04-25T03:29:30;10.04;68.40
70534;SHT31;58088;51.186;17.130;2023-04-25T03:31:57;10.05;68.35
70534;SHT31;58088;51.186;17.130;2023-04-25T03:34:24;10.06;68.34
70534;SHT31;58088;51.186;17.130;2023-04-25T03:36:51;10.02;68.37
70534;SHT31;58088;51.186;17.130;2023-04-25T03:39:18;9.98;68.42
70534;SHT31;58088;51.186;17.130;2023-04-25T03:41:47;9.94;68.39
70534;SHT31;58088;51.186;17.130;2023-04-25T03:44:14;9.92;68.40
70534;SHT31;58088;51.186;17.130;2023-04-25T03:46:40;9.92;68.37
70534;SHT31;58088;51.186;17.130;2023-04-25T03:49:07;9.89;68.38
70534;SHT31;58088;51.186;17.130;2023-04-25T03:51:53;9.88;68.51
70534;SHT31;58088;51.186;17.130;2023-04-25T03:54:20;9.87;68.68
70534;SHT31;58088;51.186;17.130;2023-04-25T03:56:54;9.82;68.74
70534;SHT31;58088;51.186;17.130;2023-04-25T03:59:22;9.83;68.69
70534;SHT31;58088;51.186;17.130;2023-04-25T04:01:48;9.81;68.74
70534;SHT31;58088;51.186;17.130;2023-04-25T04:04:14;9.81;68.77
70534;SHT31;58088;51.186;17.130;2023-04-25T04:06:40;9.85;68.77
70534;SHT31;58088;51.186;17.130;2023-04-25T04:09:13;9.89;68.69
70534;SHT31;58088;51.186;17.130;2023-04-25T04:11:42;9.90;68.61
70534;SHT31;58088;51.186;17.130;2023-04-25T04:14:09;9.92;68.55
70534;SHT31;58088;51.186;17.130;2023-04-25T04:16:38;9.94;68.54
70534;SHT31;58088;51.186;17.130;2023-04-25T04:19:04;9.98;68.55
70534;SHT31;58088;51.186;17.130;2023-04-25T04:21:32;10.06;68.50
70534;SHT31;58088;51.186;17.130;2023-04-25T04:24:00;10.11;68.36
70534;SHT31;58088;51.186;17.130;2023-04-25T04:26:29;10.18;68.60
70534;SHT31;58088;51.186;17.130;2023-04-25T04:29:17;10.24;68.42
70534;SHT31;58088;51.186;17.130;2023-04-25T04:32:06;10.26;68.29
70534;SHT31;58088;51.186;17.130;2023-04-25T04:34:35;10.25;68.22
70534;SHT31;58088;51.186;17.130;2023-04-25T04:37:02;10.26;68.20
70534;SHT31;58088;51.186;17.130;2023-04-25T04:39:28;10.25;68.15
70534;SHT31;58088;51.186;17.130;2023-04-25T04:42:02;10.30;68.20
70534;SHT31;58088;51.186;17.130;2023-04-25T04:44:47;10.40;68.13
70534;SHT31;58088;51.186;17.130;2023-04-25T04:47:24;10.48;68.00
70534;SHT31;58088;51.186;17.130;2023-04-25T04:50:23;10.65;67.85
70534;SHT31;58088;51.186;17.130;2023-04-25T04:53:08;10.72;67.75
70534;SHT31;58088;51.186;17.130;2023-04-25T04:55:45;10.77;67.57
70534;SHT31;58088;51.186;17.130;2023-04-25T04:58:30;10.77;67.49
70534;SHT31;58088;51.186;17.130;2023-04-25T05:01:22;10.84;67.48
70534;SHT31;58088;51.186;17.130;2023-04-25T05:03:59;10.91;67.31
70534;SHT31;58088;51.186;17.130;2023-04-25T05:06:46;10.94;67.13
70534;SHT31;58088;51.186;17.130;2023-04-25T05:09:29;11.02;67.06
70534;SHT31;58088;51.186;17.130;2023-04-25T05:12:10;11.13;66.95
70534;SHT31;58088;51.186;17.130;2023-04-25T05:14:55;11.36;66.81
70534;SHT31;58088;51.186;17.130;2023-04-25T05:17:47;11.59;66.19
70534;SHT31;58088;51.186;17.130;2023-04-25T05:20:32;11.77;65.86
70534;SHT31;58088;51.186;17.130;2023-04-25T05:23:24;11.90;65.66
70534;SHT31;58088;51.186;17.130;2023-04-25T05:25:59;11.95;65.51
70534;SHT31;58088;51.186;17.130;2023-04-25T05:28:51;12.10;65.19
70534;SHT31;58088;51.186;17.130;2023-04-25T05:31:36;12.29;65.01
70534;SHT31;58088;51.186;17.130;2023-04-25T05:34:12;12.38;64.50
70534;SHT31;58088;51.186;17.130;2023-04-25T05:36:44;12.39;64.11
70534;SHT31;58088;51.186;17.130;2023-04-25T05:39:15;12.38;63.89
70534;SHT31;58088;51.186;17.130;2023-04-25T05:42:03;12.36;63.73
70534;SHT31;58088;51.186;17.130;2023-04-25T05:44:49;12.40;63.54
70534;SHT31;58088;51.186;17.130;2023-04-25T05:47:33;12.35;63.25
70534;SHT31;58088;51.186;17.130;2023-04-25T05:50:14;12.33;63.32
70534;SHT31;58088;51.186;17.130;2023-04-25T05:52:55;12.33;63.20
70534;SHT31;58088;51.186;17.130;2023-04-25T05:55:48;12.33;63.25
70534;SHT31;58088;51.186;17.130;2023-04-25T05:58:25;12.30;62.98
70534;SHT31;58088;51.186;17.130;2023-04-25T06:00:53;12.28;62.98
70534;SHT31;58088;51.186;17.130;2023-04-25T06:03:19;12.31;63.05
70534;SHT31;58088;51.186;17.130;2023-04-25T06:05:46;12.29;62.81
70534;SHT31;58088;51.186;17.130;2023-04-25T06:08:13;12.33;62.82
70534;SHT31;58088;51.186;17.130;2023-04-25T06:10:39;12.37;62.79
70534;SHT31;58088;51.186;17.130;2023-04-25T06:13:05;12.45;62.48
70534;SHT31;58088;51.186;17.130;2023-04-25T06:15:33;12.53;62.30
70534;SHT31;58088;51.186;17.130;2023-04-25T06:18:00;12.55;62.27
70534;SHT31;58088;51.186;17.130;2023-04-25T06:20:26;12.57;62.03
70534;SHT31;58088;51.186;17.130;2023-04-25T06:22:54;12.59;61.92
70534;SHT31;58088;51.186;17.130;2023-04-25T06:25:25;12.63;61.90
70534;SHT31;58088;51.186;17.130;2023-04-25T06:27:53;12.68;61.65
70534;SHT31;58088;51.186;17.130;2023-04-25T06:30:19;12.72;61.44
70534;SHT31;58088;51.186;17.130;2023-04-25T06:32:50;12.87;61.52
70534;SHT31;58088;51.186;17.130;2023-04-25T06:35:17;13.04;61.39
70534;SHT31;58088;51.186;17.130;2023-04-25T06:37:44;13.20;61.14
70534;SHT31;58088;51.186;17.130;2023-04-25T06:40:10;13.35;60.97
70534;SHT31;58088;51.186;17.130;2023-04-25T06:42:37;13.52;60.71
70534;SHT31;58088;51.186;17.130;2023-04-25T06:45:23;13.77;60.59
70534;SHT31;58088;51.186;17.130;2023-04-25T06:47:49;13.96;59.95
70534;SHT31;58088;51.186;17.130;2023-04-25T06:50:15;14.11;59.09
70534;SHT31;58088;51.186;17.130;2023-04-25T06:52:42;14.30;58.64
70534;SHT31;58088;51.186;17.130;2023-04-25T06:55:08;14.46;58.54
70534;SHT31;58088;51.186;17.130;2023-04-25T06:57:53;14.77;58.51
70534;SHT31;58088;51.186;17.130;2023-04-25T07:00:40;15.07;57.51
70534;SHT31;58088;51.186;17.130;2023-04-25T07:03:06;15.22;56.79
70534;SHT31;58088;51.186;17.130;2023-04-25T07:05:33;15.24;55.46
70534;SHT31;58088;51.186;17.130;2023-04-25T07:07:59;15.25;55.31
70534;SHT31;58088;51.186;17.130;2023-04-25T07:10:26;15.31;55.08
70534;SHT31;58088;51.186;17.130;2023-04-25T07:12:52;15.41;54.79
70534;SHT31;58088;51.186;17.130;2023-04-25T07:15:19;15.58;54.66
70534;SHT31;58088;51.186;17.130;2023-04-25T07:17:46;15.66;54.36
70534;SHT31;58088;51.186;17.130;2023-04-25T07:20:12;15.61;53.61
70534;SHT31;58088;51.186;17.130;2023-04-25T07:22:39;15.60;53.75
70534;SHT31;58088;51.186;17.130;2023-04-25T07:25:05;15.50;53.17
70534;SHT31;58088;51.186;17.130;2023-04-25T07:27:32;15.43;53.18
70534;SHT31;58088;51.186;17.130;2023-04-25T07:30:07;15.54;53.62
70534;SHT31;58088;51.186;17.130;2023-04-25T07:32:34;15.73;53.46
70534;SHT31;58088;51.186;17.130;2023-04-25T07:35:01;15.90;53.62
70534;SHT31;58088;51.186;17.130;2023-04-25T07:37:27;16.02;52.89
70534;SHT31;58088;51.186;17.130;2023-04-25T07:40:03;16.02;52.80
70534;SHT31;58088;51.186;17.130;2023-04-25T07:42:31;16.21;53.02
70534;SHT31;58088;51.186;17.130;2023-04-25T07:44:58;16.42;52.54
70534;SHT31;58088;51.186;17.130;2023-04-25T07:47:24;16.44;52.10
70534;SHT31;58088;51.186;17.130;2023-04-25T07:49:51;16.41;52.02
70534;SHT31;58088;51.186;17.130;2023-04-25T07:52:17;16.49;52.31
70534;SHT31;58088;51.186;17.130;2023-04-25T07:54:48;16.51;51.63
70534;SHT31;58088;51.186;17.130;2023-04-25T07:57:17;16.25;50.45
70534;SHT31;58088;51.186;17.130;2023-04-25T07:59:46;15.92;49.93
70534;SHT31;58088;51.186;17.130;2023-04-25T08:02:12;15.74;50.41
70534;SHT31;58088;51.186;17.130;2023-04-25T08:04:38;15.76;50.82
70534;SHT31;58088;51.186;17.130;2023-04-25T08:07:07;15.94;51.46
70534;SHT31;58088;51.186;17.130;2023-04-25T08:09:53;16.14;50.92
70534;SHT31;58088;51.186;17.130;2023-04-25T08:12:27;16.36;50.69
70534;SHT31;58088;51.186;17.130;2023-04-25T08:14:53;16.30;49.02
70534;SHT31;58088;51.186;17.130;2023-04-25T08:17:20;16.12;49.21
70534;SHT31;58088;51.186;17.130;2023-04-25T08:19:46;16.21;49.93
70534;SHT31;58088;51.186;17.130;2023-04-25T08:22:22;16.43;50.15
70534;SHT31;58088;51.186;17.130;2023-04-25T08:24:52;16.56;49.80
70534;SHT31;58088;51.186;17.130;2023-04-25T08:27:19;16.53;49.14
70534;SHT31;58088;51.186;17.130;2023-04-25T08:29:46;16.58;49.40
70534;SHT31;58088;51.186;17.130;2023-04-25T08:32:13;16.49;49.02
70534;SHT31;58088;51.186;17.130;2023-04-25T08:34:43;16.33;48.85
70534;SHT31;58088;51.186;17.130;2023-04-25T08:37:09;16.29;49.39
70534;SHT31;58088;51.186;17.130;2023-04-25T08:39:59;16.22;49.54
70534;SHT31;58088;51.186;17.130;2023-04-25T08:42:48;16.15;49.40
70534;SHT31;58088;51.186;17.130;2023-04-25T08:45:17;16.08;49.41
70534;SHT31;58088;51.186;17.130;2023-04-25T08:47:43;15.98;49.94
70534;SHT31;58088;51.186;17.130;2023-04-25T08:50:14;15.96;50.24
70534;SHT31;58088;51.186;17.130;2023-04-25T08:52:43;15.89;50.00
70534;SHT31;58088;51.186;17.130;2023-04-25T08:55:13;15.76;49.71
70534;SHT31;58088;51.186;17.130;2023-04-25T08:57:41;15.65;49.87
70534;SHT31;58088;51.186;17.130;2023-04-25T09:00:11;15.58;49.74
70534;SHT31;58088;51.186;17.130;2023-04-25T09:02:42;15.44;49.87
70534;SHT31;58088;51.186;17.130;2023-04-25T09:05:09;15.34;50.00
70534;SHT31;58088;51.186;17.130;2023-04-25T09:07:39;15.22;49.94
70534;SHT31;58088;51.186;17.130;2023-04-25T09:10:05;15.09;50.25
70534;SHT31;58088;51.186;17.130;2023-04-25T09:12:34;14.98;50.33
70534;SHT31;58088;51.186;17.130;2023-04-25T09:15:11;14.91;50.74
70534;SHT31;58088;51.186;17.130;2023-04-25T09:17:54;14.93;51.01
70534;SHT31;58088;51.186;17.130;2023-04-25T09:20:32;14.96;51.36
70534;SHT31;58088;51.186;17.130;2023-04-25T09:23:08;15.15;51.87
70534;SHT31;58088;51.186;17.130;2023-04-25T09:25:36;15.25;51.27
70534;SHT31;58088;51.186;17.130;2023-04-25T09:28:06;15.30;51.40
70534;SHT31;58088;51.186;17.130;2023-04-25T09:30:33;15.33;51.24
70534;SHT31;58088;51.186;17.130;2023-04-25T09:33:23;15.22;50.91
70534;SHT31;58088;51.186;17.130;2023-04-25T09:36:02;15.12;50.68
70534;SHT31;58088;51.186;17.130;2023-04-25T09:39:00;15.04;50.85
70534;SHT31;58088;51.186;17.130;2023-04-25T09:41:28;14.96;51.08
70534;SHT31;58088;51.186;17.130;2023-04-25T09:43:58;15.00;51.56
70534;SHT31;58088;51.186;17.130;2023-04-25T09:46:34;15.12;51.80
70534;SHT31;58088;51.186;17.130;2023-04-25T09:49:06;15.18;51.23
70534;SHT31;58088;51.186;17.130;2023-04-25T09:51:53;15.09;50.69
70534;SHT31;58088;51.186;17.130;2023-04-25T09:54:25;15.14;51.36
70534;SHT31;58088;51.186;17.130;2023-04-25T09:57:10;15.29;51.46
70534;SHT31;58088;51.186;17.130;2023-04-25T09:59:43;15.51;51.60
70534;SHT31;58088;51.186;17.130;2023-04-25T10:02:18;15.55;50.87
70534;SHT31;58088;51.186;17.130;2023-04-25T10:04:51;15.48;50.82
70534;SHT31;58088;51.186;17.130;2023-04-25T10:07:35;15.33;49.96
70534;SHT31;58088;51.186;17.130;2023-04-25T10:10:06;15.24;50.27
70534;SHT31;58088;51.186;17.130;2023-04-25T10:12:33;15.30;50.66
70534;SHT31;58088;51.186;17.130;2023-04-25T10:15:00;15.23;49.95
70534;SHT31;58088;51.186;17.130;2023-04-25T10:17:28;15.27;50.42
70534;SHT31;58088;51.186;17.130;2023-04-25T10:19:54;15.38;50.76
70534;SHT31;58088;51.186;17.130;2023-04-25T10:22:41;15.48;50.29
70534;SHT31;58088;51.186;17.130;2023-04-25T10:25:13;15.60;49.97
70534;SHT31;58088;51.186;17.130;2023-04-25T10:27:40;15.73;49.75
70534;SHT31;58088;51.186;17.130;2023-04-25T10:30:10;15.84;49.43
70534;SHT31;58088;51.186;17.130;2023-04-25T10:32:44;15.92;49.11
70534;SHT31;58088;51.186;17.130;2023-04-25T10:35:12;16.06;49.14
70534;SHT31;58088;51.186;17.130;2023-04-25T10:38:08;16.23;49.03
70534;SHT31;58088;51.186;17.130;2023-04-25T10:40:38;16.42;48.68
70534;SHT31;58088;51.186;17.130;2023-04-25T10:46:16;16.56;46.95
70534;SHT31;58088;51.186;17.130;2023-04-25T10:48:59;16.66;47.06
70534;SHT31;58088;51.186;17.130;2023-04-25T10:51:31;16.93;47.31
70534;SHT31;58088;51.186;17.130;2023-04-25T10:54:00;17.06;46.74
70534;SHT31;58088;51.186;17.130;2023-04-25T10:56:32;17.16;46.65
70534;SHT31;58088;51.186;17.130;2023-04-25T10:59:07;17.20;46.01
70534;SHT31;58088;51.186;17.130;2023-04-25T11:01:45;17.20;46.10
70534;SHT31;58088;51.186;17.130;2023-04-25T11:04:21;17.01;45.43
70534;SHT31;58088;51.186;17.130;2023-04-25T11:09:32;16.63;45.07
70534;SHT31;58088;51.186;17.130;2023-04-25T11:12:00;16.47;45.35
70534;SHT31;58088;51.186;17.130;2023-04-25T11:14:27;16.39;45.74
70534;SHT31;58088;51.186;17.130;2023-04-25T11:16:53;16.35;45.93
70534;SHT31;58088;51.186;17.130;2023-04-25T11:19:21;16.22;45.86
70534;SHT31;58088;51.186;17.130;2023-04-25T11:21:49;16.24;46.39
70534;SHT31;58088;51.186;17.130;2023-04-25T11:24:16;16.35;47.09
70534;SHT31;58088;51.186;17.130;2023-04-25T11:26:43;16.47;46.42
70534;SHT31;58088;51.186;17.130;2023-04-25T11:29:13;16.49;46.22
70534;SHT31;58088;51.186;17.130;2023-04-25T11:31:43;16.50;46.16
70534;SHT31;58088;51.186;17.130;2023-04-25T11:34:16;16.44;46.17
70534;SHT31;58088;51.186;17.130;2023-04-25T11:36:44;16.40;45.98
70534;SHT31;58088;51.186;17.130;2023-04-25T11:39:12;16.49;45.75
70534;SHT31;58088;51.186;17.130;2023-04-25T11:41:41;16.53;45.56
70534;SHT31;58088;51.186;17.130;2023-04-25T11:44:09;16.46;44.81
70534;SHT31;58088;51.186;17.130;2023-04-25T11:46:37;16.41;44.97
70534;SHT31;58088;51.186;17.130;2023-04-25T11:49:04;16.48;44.33
70534;SHT31;58088;51.186;17.130;2023-04-25T11:51:37;16.50;44.25
70534;SHT31;58088;51.186;17.130;2023-04-25T11:54:06;16.47;44.10
70534;SHT31;58088;51.186;17.130;2023-04-25T11:56:33;16.44;44.33
70534;SHT31;58088;51.186;17.130;2023-04-25T11:59:04;16.43;44.15
70534;SHT31;58088;51.186;17.130;2023-04-25T12:01:34;16.36;44.28
70534;SHT31;58088;51.186;17.130;2023-04-25T12:04:17;16.35;44.41
70534;SHT31;58088;51.186;17.130;2023-04-25T12:06:51;16.37;44.37
70534;SHT31;58088;51.186;17.130;2023-04-25T12:09:21;16.49;45.23
70534;SHT31;58088;51.186;17.130;2023-04-25T12:11:56;16.67;45.38
70534;SHT31;58088;51.186;17.130;2023-04-25T12:14:25;16.75;44.82
70534;SHT31;58088;51.186;17.130;2023-04-25T12:17:00;16.65;43.63
70534;SHT31;58088;51.186;17.130;2023-04-25T12:19:36;16.66;44.02
70534;SHT31;58088;51.186;17.130;2023-04-25T12:22:19;16.74;44.50
70534;SHT31;58088;51.186;17.130;2023-04-25T12:24:48;16.87;44.63
70534;SHT31;58088;51.186;17.130;2023-04-25T12:27:15;16.91;44.06
70534;SHT31;58088;51.186;17.130;2023-04-25T12:29:51;16.98;44.69
70534;SHT31;58088;51.186;17.130;2023-04-25T12:32:22;16.94;44.31
70534;SHT31;58088;51.186;17.130;2023-04-25T12:34:48;16.88;44.26
70534;SHT31;58088;51.186;17.130;2023-04-25T12:37:14;16.78;44.12
70534;SHT31;58088;51.186;17.130;2023-04-25T12:39:41;16.81;44.64
70534;SHT31;58088;51.186;17.130;2023-04-25T12:42:07;16.80;44.38
70534;SHT31;58088;51.186;17.130;2023-04-25T12:44:37;16.76;44.25
70534;SHT31;58088;51.186;17.130;2023-04-25T12:47:04;16.57;43.83
70534;SHT31;58088;51.186;17.130;2023-04-25T12:49:31;16.42;44.19
70534;SHT31;58088;51.186;17.130;2023-04-25T12:51:57;16.30;43.93
70534;SHT31;58088;51.186;17.130;2023-04-25T12:54:24;16.28;44.26
70534;SHT31;58088;51.186;17.130;2023-04-25T12:56:51;16.34;44.66
70534;SHT31;58088;51.186;17.130;2023-04-25T12:59:18;16.45;44.94
70534;SHT31;58088;51.186;17.130;2023-04-25T13:01:45;16.53;44.60
70534;SHT31;58088;51.186;17.130;2023-04-25T13:04:11;16.54;44.64
70534;SHT31;58088;51.186;17.130;2023-04-25T13:06:38;16.49;45.36
70534;SHT31;58088;51.186;17.130;2023-04-25T13:09:04;16.44;45.06
70534;SHT31;58088;51.186;17.130;2023-04-25T13:11:30;16.39;44.78
70534;SHT31;58088;51.186;17.130;2023-04-25T13:13:56;16.40;45.02
70534;SHT31;58088;51.186;17.130;2023-04-25T13:16:22;16.40;44.93
70534;SHT31;58088;51.186;17.130;2023-04-25T13:18:49;16.44;45.29
70534;SHT31;58088;51.186;17.130;2023-04-25T13:21:15;16.47;45.24
70534;SHT31;58088;51.186;17.130;2023-04-25T13:23:41;16.44;45.56
70534;SHT31;58088;51.186;17.130;2023-04-25T13:26:08;16.47;45.77
70534;SHT31;58088;51.186;17.130;2023-04-25T13:28:34;16.40;45.27
70534;SHT31;58088;51.186;17.130;2023-04-25T13:31:00;16.30;45.32
70534;SHT31;58088;51.186;17.130;2023-04-25T13:33:27;16.31;45.49
70534;SHT31;58088;51.186;17.130;2023-04-25T13:35:53;16.24;45.25
70534;SHT31;58088;51.186;17.130;2023-04-25T13:38:21;16.13;45.56
70534;SHT31;58088;51.186;17.130;2023-04-25T13:40:48;16.12;45.92
70534;SHT31;58088;51.186;17.130;2023-04-25T13:43:15;16.16;45.67
70534;SHT31;58088;51.186;17.130;2023-04-25T13:45:41;16.17;46.00
70534;SHT31;58088;51.186;17.130;2023-04-25T13:48:08;16.14;46.22
70534;SHT31;58088;51.186;17.130;2023-04-25T13:50:34;16.09;45.94
70534;SHT31;58088;51.186;17.130;2023-04-25T13:53:00;16.11;46.16
70534;SHT31;58088;51.186;17.130;2023-04-25T13:55:26;16.09;46.24
70534;SHT31;58088;51.186;17.130;2023-04-25T13:57:53;16.03;46.14
70534;SHT31;58088;51.186;17.130;2023-04-25T14:00:19;16.00;45.86
70534;SHT31;58088;51.186;17.130;2023-04-25T14:02:46;16.05;45.82
70534;SHT31;58088;51.186;17.130;2023-04-25T14:05:12;16.15;46.49
70534;SHT31;58088;51.186;17.130;2023-04-25T14:07:38;16.26;45.99
70534;SHT31;58088;51.186;17.130;2023-04-25T14:10:05;16.30;45.70
70534;SHT31;58088;51.186;17.130;2023-04-25T14:12:32;16.33;45.73
70534;SHT31;58088;51.186;17.130;2023-04-25T14:14:58;16.33;45.59
70534;SHT31;58088;51.186;17.130;2023-04-25T14:17:25;16.32;45.74
70534;SHT31;58088;51.186;17.130;2023-04-25T14:19:52;16.30;45.78
70534;SHT31;58088;51.186;17.130;2023-04-25T14:22:18;16.28;45.95
70534;SHT31;58088;51.186;17.130;2023-04-25T14:24:45;16.26;45.90
70534;SHT31;58088;51.186;17.130;2023-04-25T14:27:11;16.22;46.21
70534;SHT31;58088;51.186;17.130;2023-04-25T14:29:37;16.16;46.28
70534;SHT31;58088;51.186;17.130;2023-04-25T14:32:03;16.08;46.43
70534;SHT31;58088;51.186;17.130;2023-04-25T14:34:30;15.96;47.73
70534;SHT31;58088;51.186;17.130;2023-04-25T14:36:57;15.88;48.08
70534;SHT31;58088;51.186;17.130;2023-04-25T14:39:23;15.74;47.36
70534;SHT31;58088;51.186;17.130;2023-04-25T14:41:49;15.60;47.32
70534;SHT31;58088;51.186;17.130;2023-04-25T14:44:15;15.53;47.34
70534;SHT31;58088;51.186;17.130;2023-04-25T14:46:42;15.48;47.09
70534;SHT31;58088;51.186;17.130;2023-04-25T14:49:08;15.41;47.11
70534;SHT31;58088;51.186;17.130;2023-04-25T14:51:35;15.39;47.24
70534;SHT31;58088;51.186;17.130;2023-04-25T14:54:01;15.40;47.49
70534;SHT31;58088;51.186;17.130;2023-04-25T14:56:27;15.38;47.62
70534;SHT31;58088;51.186;17.130;2023-04-25T14:58:53;15.38;47.57
70534;SHT31;58088;51.186;17.130;2023-04-25T15:01:19;15.31;47.21
70534;SHT31;58088;51.186;17.130;2023-04-25T15:03:46;15.25;47.40
70534;SHT31;58088;51.186;17.130;2023-04-25T15:06:12;15.21;47.77
70534;SHT31;58088;51.186;17.130;2023-04-25T15:08:38;15.17;47.83
70534;SHT31;58088;51.186;17.130;2023-04-25T15:11:04;15.14;47.65
70534;SHT31;58088;51.186;17.130;2023-04-25T15:13:31;15.05;47.53
70534;SHT31;58088;51.186;17.130;2023-04-25T15:15:58;14.93;47.42
70534;SHT31;58088;51.186;17.130;2023-04-25T15:18:24;14.86;47.68
70534;SHT31;58088;51.186;17.130;2023-04-25T15:20:50;14.79;47.53
70534;SHT31;58088;51.186;17.130;2023-04-25T15:23:18;14.67;47.24
70534;SHT31;58088;51.186;17.130;2023-04-25T15:25:46;14.59;47.26
70534;SHT31;58088;51.186;17.130;2023-04-25T15:28:13;14.55;47.00
70534;SHT31;58088;51.186;17.130;2023-04-25T15:30:42;14.54;47.08
70534;SHT31;58088;51.186;17.130;2023-04-25T15:33:10;14.48;47.13
70534;SHT31;58088;51.186;17.130;2023-04-25T15:35:36;14.43;47.08
70534;SHT31;58088;51.186;17.130;2023-04-25T15:38:03;14.41;47.30
70534;SHT31;58088;51.186;17.130;2023-04-25T15:40:29;14.41;47.58
70534;SHT31;58088;51.186;17.130;2023-04-25T15:42:55;14.42;47.86